sensor_id;sensor_type;location;lat;lon;timestamp;P1;durP1;ratioP1;P2;durP2;ratioP2
14797;SDS011;7490;63.708;20.368;2023-09-12T00:01:05;34.57;;;24.30;;
14797;SDS011;7490;63.708;20.368;2023-09-12T00:03:31;35.47;;;25.03;;
14797;SDS011;7490;63.708;20.368;2023-09-12T00:05:58;36.93;;;24.93;;
14797;SDS011;7490;63.708;20.368;2023-09-12T00:08:25;37.13;;;25.70;;
14797;SDS011;7490;63.708;20.368;2023-09-12T00:11:07;40.83;;;26.80;;
14797;SDS011;7490;63.708;20.368;2023-09-12T00:13:40;37.63;;;24.90;;
14797;SDS011;7490;63.708;20.368;2023-09-12T00:16:06;37.20;;;25.43;;
14797;SDS011;7490;63.708;20.368;2023-09-12T00:18:36;42.27;;;25.23;;
14797;SDS011;7490;63.708;20.368;2023-09-12T00:21:05;36.40;;;25.23;;
14797;SDS011;7490;63.708;20.368;2023-09-12T00:23:31;35.80;;;25.77;;
14797;SDS011;7490;63.708;20.368;2023-09-12T00:25:57;40.40;;;25.77;;
14797;SDS011;7490;63.708;20.368;2023-09-12T00:28:23;37.10;;;24.20;;
14797;SDS011;7490;63.708;20.368;2023-09-12T00:30:48;35.33;;;25.67;;
14797;SDS011;7490;63.708;20.368;2023-09-12T00:33:14;36.90;;;24.53;;
14797;SDS011;7490;63.708;20.368;2023-09-12T00:35:40;43.70;;;24.43;;
14797;SDS011;7490;63.708;20.368;2023-09-12T00:38:08;37.77;;;24.73;;
14797;SDS011;7490;63.708;20.368;2023-09-12T00:40:34;37.77;;;22.73;;
14797;SDS011;7490;63.708;20.368;2023-09-12T00:43:00;35.97;;;23.37;;
14797;SDS011;7490;63.708;20.368;2023-09-12T00:45:25;40.10;;;24.63;;
14797;SDS011;7490;63.708;20.368;2023-09-12T00:47:51;34.33;;;22.40;;
14797;SDS011;7490;63.708;20.368;2023-09-12T00:50:18;32.33;;;22.23;;
14797;SDS011;7490;63.708;20.368;2023-09-12T00:52:48;35.87;;;23.30;;
14797;SDS011;7490;63.708;20.368;2023-09-12T00:55:14;36.80;;;22.23;;
14797;SDS011;7490;63.708;20.368;2023-09-12T00:57:40;35.07;;;22.67;;
14797;SDS011;7490;63.708;20.368;2023-09-12T01:00:07;33.50;;;23.17;;
14797;SDS011;7490;63.708;20.368;2023-09-12T01:02:42;36.87;;;23.33;;
14797;SDS011;7490;63.708;20.368;2023-09-12T01:05:10;31.00;;;21.07;;
14797;SDS011;7490;63.708;20.368;2023-09-12T01:07:37;34.77;;;22.87;;
14797;SDS011;7490;63.708;20.368;2023-09-12T01:10:06;31.60;;;22.27;;
14797;SDS011;7490;63.708;20.368;2023-09-12T01:12:32;34.67;;;22.10;;
14797;SDS011;7490;63.708;20.368;2023-09-12T01:14:58;33.93;;;21.93;;
14797;SDS011;7490;63.708;20.368;2023-09-12T01:17:24;29.50;;;21.73;;
14797;SDS011;7490;63.708;20.368;2023-09-12T01:19:50;30.13;;;21.53;;
14797;SDS011;7490;63.708;20.368;2023-09-12T01:22:27;30.77;;;20.40;;
14797;SDS011;7490;63.708;20.368;2023-09-12T01:25:11;28.97;;;20.20;;
14797;SDS011;7490;63.708;20.368;2023-09-12T01:28:09;28.97;;;20.27;;
14797;SDS011;7490;63.708;20.368;2023-09-12T01:30:35;25.70;;;18.30;;
14797;SDS011;7490;63.708;20.368;2023-09-12T01:33:02;28.40;;;19.40;;
14797;SDS011;7490;63.708;20.368;2023-09-12T01:35:28;32.83;;;20.60;;
14797;SDS011;7490;63.708;20.368;2023-09-12T01:37:54;28.37;;;19.30;;
14797;SDS011;7490;63.708;20.368;2023-09-12T01:40:25;29.67;;;19.27;;
14797;SDS011;7490;63.708;20.368;2023-09-12T01:43:03;30.53;;;20.90;;
14797;SDS011;7490;63.708;20.368;2023-09-12T01:45:31;29.80;;;19.90;;
14797;SDS011;7490;63.708;20.368;2023-09-12T01:47:57;33.43;;;20.33;;
14797;SDS011;7490;63.708;20.368;2023-09-12T01:50:24;32.50;;;20.43;;
14797;SDS011;7490;63.708;20.368;2023-09-12T01:52:52;32.77;;;21.30;;
14797;SDS011;7490;63.708;20.368;2023-09-12T01:55:18;32.57;;;20.63;;
14797;SDS011;7490;63.708;20.368;2023-09-12T01:57:45;31.43;;;20.33;;
14797;SDS011;7490;63.708;20.368;2023-09-12T02:00:12;30.23;;;21.30;;
14797;SDS011;7490;63.708;20.368;2023-09-12T02:02:38;34.80;;;21.67;;
14797;SDS011;7490;63.708;20.368;2023-09-12T02:05:17;34.33;;;21.43;;
14797;SDS011;7490;63.708;20.368;2023-09-12T02:07:45;33.40;;;21.40;;
14797;SDS011;7490;63.708;20.368;2023-09-12T02:10:11;34.50;;;21.87;;
14797;SDS011;7490;63.708;20.368;2023-09-12T02:12:37;29.00;;;19.57;;
14797;SDS011;7490;63.708;20.368;2023-09-12T02:15:03;29.70;;;19.30;;
14797;SDS011;7490;63.708;20.368;2023-09-12T02:17:29;30.70;;;19.13;;
14797;SDS011;7490;63.708;20.368;2023-09-12T02:19:55;31.53;;;20.67;;
14797;SDS011;7490;63.708;20.368;2023-09-12T02:22:21;31.83;;;19.73;;
14797;SDS011;7490;63.708;20.368;2023-09-12T02:24:46;32.00;;;19.67;;
14797;SDS011;7490;63.708;20.368;2023-09-12T02:27:12;28.03;;;19.40;;
14797;SDS011;7490;63.708;20.368;2023-09-12T02:29:38;28.43;;;18.83;;
14797;SDS011;7490;63.708;20.368;2023-09-12T02:32:04;28.03;;;19.17;;
14797;SDS011;7490;63.708;20.368;2023-09-12T02:34:30;28.67;;;18.30;;
14797;SDS011;7490;63.708;20.368;2023-09-12T02:36:56;29.33;;;18.30;;
14797;SDS011;7490;63.708;20.368;2023-09-12T02:39:22;29.53;;;19.47;;
14797;SDS011;7490;63.708;20.368;2023-09-12T02:41:48;30.63;;;19.47;;
14797;SDS011;7490;63.708;20.368;2023-09-12T02:44:13;30.43;;;20.77;;
14797;SDS011;7490;63.708;20.368;2023-09-12T02:46:39;27.80;;;18.90;;
14797;SDS011;7490;63.708;20.368;2023-09-12T02:49:05;28.27;;;18.73;;
14797;SDS011;7490;63.708;20.368;2023-09-12T02:51:30;32.90;;;19.00;;
14797;SDS011;7490;63.708;20.368;2023-09-12T02:53:56;30.47;;;18.30;;
14797;SDS011;7490;63.708;20.368;2023-09-12T02:56:22;27.97;;;18.23;;
14797;SDS011;7490;63.708;20.368;2023-09-12T02:58:48;27.87;;;18.00;;
14797;SDS011;7490;63.708;20.368;2023-09-12T03:01:15;26.50;;;17.07;;
14797;SDS011;7490;63.708;20.368;2023-09-12T03:03:41;25.73;;;17.60;;
14797;SDS011;7490;63.708;20.368;2023-09-12T03:06:07;27.00;;;16.83;;
14797;SDS011;7490;63.708;20.368;2023-09-12T03:08:32;26.30;;;16.73;;
14797;SDS011;7490;63.708;20.368;2023-09-12T03:10:58;20.33;;;16.00;;
14797;SDS011;7490;63.708;20.368;2023-09-12T03:13:25;24.87;;;15.43;;
14797;SDS011;7490;63.708;20.368;2023-09-12T03:15:51;22.13;;;15.33;;
14797;SDS011;7490;63.708;20.368;2023-09-12T03:18:17;22.53;;;15.07;;
14797;SDS011;7490;63.708;20.368;2023-09-12T03:20:43;22.03;;;15.37;;
14797;SDS011;7490;63.708;20.368;2023-09-12T03:23:09;22.27;;;15.43;;
14797;SDS011;7490;63.708;20.368;2023-09-12T03:25:35;24.90;;;15.37;;
14797;SDS011;7490;63.708;20.368;2023-09-12T03:28:07;22.80;;;15.30;;
14797;SDS011;7490;63.708;20.368;2023-09-12T03:30:34;24.83;;;15.50;;
14797;SDS011;7490;63.708;20.368;2023-09-12T03:33:00;25.90;;;15.73;;
14797;SDS011;7490;63.708;20.368;2023-09-12T03:35:27;24.23;;;16.50;;
14797;SDS011;7490;63.708;20.368;2023-09-12T03:37:53;22.47;;;15.23;;
14797;SDS011;7490;63.708;20.368;2023-09-12T03:40:19;20.90;;;15.07;;
14797;SDS011;7490;63.708;20.368;2023-09-12T03:42:45;27.57;;;15.57;;
14797;SDS011;7490;63.708;20.368;2023-09-12T03:45:11;23.90;;;14.90;;
14797;SDS011;7490;63.708;20.368;2023-09-12T03:47:36;26.13;;;16.23;;
14797;SDS011;7490;63.708;20.368;2023-09-12T03:50:02;23.00;;;16.50;;
14797;SDS011;7490;63.708;20.368;2023-09-12T03:52:28;24.17;;;16.20;;
14797;SDS011;7490;63.708;20.368;2023-09-12T03:54:54;23.20;;;15.77;;
14797;SDS011;7490;63.708;20.368;2023-09-12T03:57:20;22.50;;;16.53;;
14797;SDS011;7490;63.708;20.368;2023-09-12T03:59:46;26.77;;;16.67;;
14797;SDS011;7490;63.708;20.368;2023-09-12T04:02:11;26.23;;;15.53;;
14797;SDS011;7490;63.708;20.368;2023-09-12T04:04:37;24.30;;;16.47;;
14797;SDS011;7490;63.708;20.368;2023-09-12T04:07:03;26.47;;;17.00;;
14797;SDS011;7490;63.708;20.368;2023-09-12T04:09:29;25.43;;;17.10;;
14797;SDS011;7490;63.708;20.368;2023-09-12T04:11:55;26.77;;;17.33;;
14797;SDS011;7490;63.708;20.368;2023-09-12T04:14:21;23.63;;;17.23;;
14797;SDS011;7490;63.708;20.368;2023-09-12T04:16:47;24.70;;;17.17;;
14797;SDS011;7490;63.708;20.368;2023-09-12T04:19:13;26.90;;;17.37;;
14797;SDS011;7490;63.708;20.368;2023-09-12T04:21:39;27.10;;;17.00;;
14797;SDS011;7490;63.708;20.368;2023-09-12T04:24:05;26.20;;;16.77;;
14797;SDS011;7490;63.708;20.368;2023-09-12T04:26:32;23.70;;;18.17;;
14797;SDS011;7490;63.708;20.368;2023-09-12T04:28:57;28.17;;;18.97;;
14797;SDS011;7490;63.708;20.368;2023-09-12T04:31:23;26.80;;;18.10;;
14797;SDS011;7490;63.708;20.368;2023-09-12T04:33:52;24.83;;;17.73;;
14797;SDS011;7490;63.708;20.368;2023-09-12T04:36:19;26.47;;;17.90;;
14797;SDS011;7490;63.708;20.368;2023-09-12T04:38:45;29.00;;;19.10;;
14797;SDS011;7490;63.708;20.368;2023-09-12T04:41:11;28.77;;;19.93;;
14797;SDS011;7490;63.708;20.368;2023-09-12T04:43:40;27.87;;;19.80;;
14797;SDS011;7490;63.708;20.368;2023-09-12T04:46:06;30.03;;;20.33;;
14797;SDS011;7490;63.708;20.368;2023-09-12T04:48:32;28.77;;;20.73;;
14797;SDS011;7490;63.708;20.368;2023-09-12T04:50:58;31.63;;;20.50;;
14797;SDS011;7490;63.708;20.368;2023-09-12T04:53:23;29.63;;;20.43;;
14797;SDS011;7490;63.708;20.368;2023-09-12T04:55:51;28.50;;;20.93;;
14797;SDS011;7490;63.708;20.368;2023-09-12T04:58:17;27.90;;;20.53;;
14797;SDS011;7490;63.708;20.368;2023-09-12T05:00:43;32.17;;;21.07;;
14797;SDS011;7490;63.708;20.368;2023-09-12T05:03:09;29.80;;;21.90;;
14797;SDS011;7490;63.708;20.368;2023-09-12T05:05:34;30.10;;;21.77;;
14797;SDS011;7490;63.708;20.368;2023-09-12T05:08:03;31.63;;;21.80;;
14797;SDS011;7490;63.708;20.368;2023-09-12T05:10:29;34.07;;;22.73;;
14797;SDS011;7490;63.708;20.368;2023-09-12T05:12:55;30.43;;;22.23;;
14797;SDS011;7490;63.708;20.368;2023-09-12T05:15:21;28.20;;;20.97;;
14797;SDS011;7490;63.708;20.368;2023-09-12T05:17:47;29.20;;;22.27;;
14797;SDS011;7490;63.708;20.368;2023-09-12T05:20:12;31.43;;;22.10;;
14797;SDS011;7490;63.708;20.368;2023-09-12T05:22:38;31.20;;;21.40;;
14797;SDS011;7490;63.708;20.368;2023-09-12T05:25:03;31.50;;;21.43;;
14797;SDS011;7490;63.708;20.368;2023-09-12T05:27:29;34.67;;;21.47;;
14797;SDS011;7490;63.708;20.368;2023-09-12T05:29:55;30.90;;;21.10;;
14797;SDS011;7490;63.708;20.368;2023-09-12T05:32:21;28.47;;;21.60;;
14797;SDS011;7490;63.708;20.368;2023-09-12T05:34:46;30.27;;;21.07;;
14797;SDS011;7490;63.708;20.368;2023-09-12T05:37:14;26.93;;;20.67;;
14797;SDS011;7490;63.708;20.368;2023-09-12T05:39:40;30.40;;;20.43;;
14797;SDS011;7490;63.708;20.368;2023-09-12T05:42:06;30.13;;;20.33;;
14797;SDS011;7490;63.708;20.368;2023-09-12T05:44:32;30.67;;;19.90;;
14797;SDS011;7490;63.708;20.368;2023-09-12T05:46:58;28.93;;;20.23;;
14797;SDS011;7490;63.708;20.368;2023-09-12T05:49:23;27.63;;;19.20;;
14797;SDS011;7490;63.708;20.368;2023-09-12T05:51:49;29.90;;;20.50;;
14797;SDS011;7490;63.708;20.368;2023-09-12T05:54:15;28.07;;;19.83;;
14797;SDS011;7490;63.708;20.368;2023-09-12T05:56:41;28.43;;;20.40;;
14797;SDS011;7490;63.708;20.368;2023-09-12T05:59:07;29.27;;;20.70;;
14797;SDS011;7490;63.708;20.368;2023-09-12T06:01:32;27.20;;;19.33;;
14797;SDS011;7490;63.708;20.368;2023-09-12T06:03:58;31.63;;;20.27;;
14797;SDS011;7490;63.708;20.368;2023-09-12T06:06:23;30.23;;;20.90;;
14797;SDS011;7490;63.708;20.368;2023-09-12T06:08:49;29.47;;;20.60;;
14797;SDS011;7490;63.708;20.368;2023-09-12T06:11:15;28.63;;;20.47;;
14797;SDS011;7490;63.708;20.368;2023-09-12T06:13:40;27.80;;;18.80;;
14797;SDS011;7490;63.708;20.368;2023-09-12T06:16:06;29.77;;;19.23;;
14797;SDS011;7490;63.708;20.368;2023-09-12T06:18:32;29.43;;;19.57;;
14797;SDS011;7490;63.708;20.368;2023-09-12T06:20:59;29.70;;;19.83;;
14797;SDS011;7490;63.708;20.368;2023-09-12T06:23:29;27.07;;;19.30;;
14797;SDS011;7490;63.708;20.368;2023-09-12T06:25:55;24.10;;;18.90;;
14797;SDS011;7490;63.708;20.368;2023-09-12T06:28:27;27.33;;;18.73;;
14797;SDS011;7490;63.708;20.368;2023-09-12T06:30:55;24.70;;;18.83;;
14797;SDS011;7490;63.708;20.368;2023-09-12T06:33:22;25.93;;;19.00;;
14797;SDS011;7490;63.708;20.368;2023-09-12T06:35:51;25.70;;;18.13;;
14797;SDS011;7490;63.708;20.368;2023-09-12T06:38:18;29.00;;;18.83;;
14797;SDS011;7490;63.708;20.368;2023-09-12T06:40:44;25.73;;;17.77;;
14797;SDS011;7490;63.708;20.368;2023-09-12T06:43:12;25.30;;;17.90;;
14797;SDS011;7490;63.708;20.368;2023-09-12T06:45:39;27.23;;;18.50;;
14797;SDS011;7490;63.708;20.368;2023-09-12T06:48:06;23.60;;;17.93;;
14797;SDS011;7490;63.708;20.368;2023-09-12T06:50:31;24.70;;;17.10;;
14797;SDS011;7490;63.708;20.368;2023-09-12T06:52:57;25.63;;;17.37;;
14797;SDS011;7490;63.708;20.368;2023-09-12T06:55:23;28.40;;;18.37;;
14797;SDS011;7490;63.708;20.368;2023-09-12T06:57:49;26.50;;;18.60;;
14797;SDS011;7490;63.708;20.368;2023-09-12T07:00:15;31.17;;;18.73;;
14797;SDS011;7490;63.708;20.368;2023-09-12T07:02:41;28.90;;;19.37;;
14797;SDS011;7490;63.708;20.368;2023-09-12T07:05:07;28.17;;;19.03;;
14797;SDS011;7490;63.708;20.368;2023-09-12T07:07:33;28.03;;;19.03;;
14797;SDS011;7490;63.708;20.368;2023-09-12T07:09:59;29.80;;;19.20;;
14797;SDS011;7490;63.708;20.368;2023-09-12T07:12:28;29.10;;;19.30;;
14797;SDS011;7490;63.708;20.368;2023-09-12T07:14:54;28.67;;;20.10;;
14797;SDS011;7490;63.708;20.368;2023-09-12T07:17:20;29.50;;;19.60;;
14797;SDS011;7490;63.708;20.368;2023-09-12T07:19:46;26.53;;;18.97;;
14797;SDS011;7490;63.708;20.368;2023-09-12T07:22:12;30.13;;;18.90;;
14797;SDS011;7490;63.708;20.368;2023-09-12T07:24:38;28.17;;;18.27;;
14797;SDS011;7490;63.708;20.368;2023-09-12T07:27:03;29.17;;;18.93;;
14797;SDS011;7490;63.708;20.368;2023-09-12T07:29:29;26.83;;;17.83;;
14797;SDS011;7490;63.708;20.368;2023-09-12T07:31:56;27.50;;;18.27;;
14797;SDS011;7490;63.708;20.368;2023-09-12T07:34:22;26.60;;;17.73;;
14797;SDS011;7490;63.708;20.368;2023-09-12T07:36:48;29.17;;;17.87;;
14797;SDS011;7490;63.708;20.368;2023-09-12T07:39:16;28.23;;;17.93;;
14797;SDS011;7490;63.708;20.368;2023-09-12T07:41:42;26.90;;;16.97;;
14797;SDS011;7490;63.708;20.368;2023-09-12T07:44:07;31.93;;;17.93;;
14797;SDS011;7490;63.708;20.368;2023-09-12T07:46:36;25.43;;;17.40;;
14797;SDS011;7490;63.708;20.368;2023-09-12T07:49:04;27.77;;;16.10;;
14797;SDS011;7490;63.708;20.368;2023-09-12T07:51:30;27.57;;;16.50;;
14797;SDS011;7490;63.708;20.368;2023-09-12T07:53:55;26.93;;;17.17;;
14797;SDS011;7490;63.708;20.368;2023-09-12T07:56:21;29.10;;;17.13;;
14797;SDS011;7490;63.708;20.368;2023-09-12T07:58:46;26.90;;;16.43;;
14797;SDS011;7490;63.708;20.368;2023-09-12T08:01:14;23.10;;;16.03;;
14797;SDS011;7490;63.708;20.368;2023-09-12T08:03:42;24.87;;;16.20;;
14797;SDS011;7490;63.708;20.368;2023-09-12T08:06:07;22.57;;;15.43;;
14797;SDS011;7490;63.708;20.368;2023-09-12T08:08:34;23.03;;;15.90;;
14797;SDS011;7490;63.708;20.368;2023-09-12T08:11:00;25.77;;;16.00;;
14797;SDS011;7490;63.708;20.368;2023-09-12T08:13:26;21.63;;;15.30;;
14797;SDS011;7490;63.708;20.368;2023-09-12T08:15:53;25.77;;;16.07;;
14797;SDS011;7490;63.708;20.368;2023-09-12T08:18:19;26.33;;;16.40;;
14797;SDS011;7490;63.708;20.368;2023-09-12T08:20:44;26.57;;;16.50;;
14797;SDS011;7490;63.708;20.368;2023-09-12T08:23:10;25.30;;;16.43;;
14797;SDS011;7490;63.708;20.368;2023-09-12T08:25:36;25.30;;;16.47;;
14797;SDS011;7490;63.708;20.368;2023-09-12T08:28:01;23.80;;;15.73;;
14797;SDS011;7490;63.708;20.368;2023-09-12T08:30:27;26.77;;;16.47;;
14797;SDS011;7490;63.708;20.368;2023-09-12T08:32:54;27.33;;;16.47;;
14797;SDS011;7490;63.708;20.368;2023-09-12T08:35:21;25.53;;;16.53;;
14797;SDS011;7490;63.708;20.368;2023-09-12T08:37:46;28.97;;;16.77;;
14797;SDS011;7490;63.708;20.368;2023-09-12T08:40:12;29.00;;;17.33;;
14797;SDS011;7490;63.708;20.368;2023-09-12T08:45:06;26.00;;;16.97;;
14797;SDS011;7490;63.708;20.368;2023-09-12T08:47:38;28.60;;;16.97;;
14797;SDS011;7490;63.708;20.368;2023-09-12T08:50:06;28.47;;;16.90;;
14797;SDS011;7490;63.708;20.368;2023-09-12T08:52:35;27.33;;;16.67;;
14797;SDS011;7490;63.708;20.368;2023-09-12T08:55:01;26.87;;;16.77;;
14797;SDS011;7490;63.708;20.368;2023-09-12T08:57:26;30.80;;;17.13;;
14797;SDS011;7490;63.708;20.368;2023-09-12T08:59:53;28.30;;;16.83;;
14797;SDS011;7490;63.708;20.368;2023-09-12T09:02:20;27.50;;;17.70;;
14797;SDS011;7490;63.708;20.368;2023-09-12T09:04:46;27.23;;;17.33;;
14797;SDS011;7490;63.708;20.368;2023-09-12T09:07:15;26.07;;;17.77;;
14797;SDS011;7490;63.708;20.368;2023-09-12T09:09:43;29.00;;;16.70;;
14797;SDS011;7490;63.708;20.368;2023-09-12T09:12:09;30.20;;;18.40;;
14797;SDS011;7490;63.708;20.368;2023-09-12T09:14:35;30.40;;;17.23;;
14797;SDS011;7490;63.708;20.368;2023-09-12T09:17:01;29.97;;;16.97;;
14797;SDS011;7490;63.708;20.368;2023-09-12T09:19:39;31.83;;;17.77;;
14797;SDS011;7490;63.708;20.368;2023-09-12T09:22:09;31.87;;;18.10;;
14797;SDS011;7490;63.708;20.368;2023-09-12T09:24:35;29.33;;;16.73;;
14797;SDS011;7490;63.708;20.368;2023-09-12T09:27:01;29.30;;;15.87;;
14797;SDS011;7490;63.708;20.368;2023-09-12T09:29:27;28.20;;;16.73;;
14797;SDS011;7490;63.708;20.368;2023-09-12T09:32:00;26.30;;;16.07;;
14797;SDS011;7490;63.708;20.368;2023-09-12T09:34:30;25.90;;;16.53;;
14797;SDS011;7490;63.708;20.368;2023-09-12T09:36:57;27.73;;;16.63;;
14797;SDS011;7490;63.708;20.368;2023-09-12T09:39:24;24.87;;;16.33;;
14797;SDS011;7490;63.708;20.368;2023-09-12T09:41:54;27.13;;;17.10;;
14797;SDS011;7490;63.708;20.368;2023-09-12T09:44:21;27.37;;;17.07;;
14797;SDS011;7490;63.708;20.368;2023-09-12T09:46:52;26.63;;;17.00;;
14797;SDS011;7490;63.708;20.368;2023-09-12T09:49:27;32.13;;;17.27;;
14797;SDS011;7490;63.708;20.368;2023-09-12T09:51:56;27.93;;;17.03;;
14797;SDS011;7490;63.708;20.368;2023-09-12T09:54:23;27.90;;;16.60;;
14797;SDS011;7490;63.708;20.368;2023-09-12T09:56:56;30.70;;;17.53;;
14797;SDS011;7490;63.708;20.368;2023-09-12T09:59:23;29.70;;;18.00;;
14797;SDS011;7490;63.708;20.368;2023-09-12T10:01:50;28.40;;;18.10;;
14797;SDS011;7490;63.708;20.368;2023-09-12T10:04:20;27.83;;;18.30;;
14797;SDS011;7490;63.708;20.368;2023-09-12T10:06:47;32.80;;;17.83;;
14797;SDS011;7490;63.708;20.368;2023-09-12T10:09:14;27.57;;;18.20;;
14797;SDS011;7490;63.708;20.368;2023-09-12T10:11:41;28.57;;;18.30;;
14797;SDS011;7490;63.708;20.368;2023-09-12T10:14:08;28.67;;;18.80;;
14797;SDS011;7490;63.708;20.368;2023-09-12T10:16:39;33.67;;;18.33;;
14797;SDS011;7490;63.708;20.368;2023-09-12T10:19:16;27.80;;;18.33;;
14797;SDS011;7490;63.708;20.368;2023-09-12T10:24:40;32.43;;;19.03;;
14797;SDS011;7490;63.708;20.368;2023-09-12T10:27:08;29.27;;;18.97;;
14797;SDS011;7490;63.708;20.368;2023-09-12T10:29:36;31.60;;;19.37;;
14797;SDS011;7490;63.708;20.368;2023-09-12T10:32:01;28.23;;;18.83;;
14797;SDS011;7490;63.708;20.368;2023-09-12T10:34:27;28.70;;;20.00;;
14797;SDS011;7490;63.708;20.368;2023-09-12T10:36:55;30.67;;;18.67;;
14797;SDS011;7490;63.708;20.368;2023-09-12T10:39:24;16.00;;;12.60;;
14797;SDS011;7490;63.708;20.368;2023-09-12T10:41:53;17.60;;;11.93;;
14797;SDS011;7490;63.708;20.368;2023-09-12T10:44:20;7.47;;;5.73;;
14797;SDS011;7490;63.708;20.368;2023-09-12T10:46:46;7.70;;;5.07;;
14797;SDS011;7490;63.708;20.368;2023-09-12T10:49:14;8.53;;;4.40;;
14797;SDS011;7490;63.708;20.368;2023-09-12T10:51:44;4.20;;;3.00;;
14797;SDS011;7490;63.708;20.368;2023-09-12T10:54:15;2.80;;;2.60;;
14797;SDS011;7490;63.708;20.368;2023-09-12T10:56:47;2.00;;;1.80;;
14797;SDS011;7490;63.708;20.368;2023-09-12T10:59:30;2.33;;;1.73;;
14797;SDS011;7490;63.708;20.368;2023-09-12T11:04:56;2.93;;;1.47;;
14797;SDS011;7490;63.708;20.368;2023-09-12T11:12:50;1.63;;;1.50;;
14797;SDS011;7490;63.708;20.368;2023-09-12T11:15:18;1.17;;;1.13;;
14797;SDS011;7490;63.708;20.368;2023-09-12T11:17:48;1.97;;;1.20;;
14797;SDS011;7490;63.708;20.368;2023-09-12T11:20:24;1.70;;;1.40;;
14797;SDS011;7490;63.708;20.368;2023-09-12T11:22:49;2.53;;;1.27;;
14797;SDS011;7490;63.708;20.368;2023-09-12T11:30:16;1.77;;;1.00;;
14797;SDS011;7490;63.708;20.368;2023-09-12T11:32:47;1.77;;;1.10;;
14797;SDS011;7490;63.708;20.368;2023-09-12T11:35:25;1.93;;;1.20;;
14797;SDS011;7490;63.708;20.368;2023-09-12T11:37:56;2.33;;;1.10;;
14797;SDS011;7490;63.708;20.368;2023-09-12T11:40:41;1.37;;;1.00;;
14797;SDS011;7490;63.708;20.368;2023-09-12T11:43:08;1.20;;;1.10;;
14797;SDS011;7490;63.708;20.368;2023-09-12T11:45:49;1.23;;;1.00;;
14797;SDS011;7490;63.708;20.368;2023-09-12T11:48:16;2.40;;;0.90;;
14797;SDS011;7490;63.708;20.368;2023-09-12T11:50:42;2.10;;;1.33;;
14797;SDS011;7490;63.708;20.368;2023-09-12T11:53:19;1.77;;;1.07;;
14797;SDS011;7490;63.708;20.368;2023-09-12T11:55:48;2.07;;;1.00;;
14797;SDS011;7490;63.708;20.368;2023-09-12T11:58:17;2.93;;;1.03;;
14797;SDS011;7490;63.708;20.368;2023-09-12T12:00:47;1.17;;;1.00;;
14797;SDS011;7490;63.708;20.368;2023-09-12T12:03:17;2.57;;;1.60;;
14797;SDS011;7490;63.708;20.368;2023-09-12T12:05:44;3.70;;;1.87;;
14797;SDS011;7490;63.708;20.368;2023-09-12T12:08:11;2.30;;;2.10;;
14797;SDS011;7490;63.708;20.368;2023-09-12T12:10:37;3.03;;;2.83;;
14797;SDS011;7490;63.708;20.368;2023-09-12T12:13:07;3.17;;;2.40;;
14797;SDS011;7490;63.708;20.368;2023-09-12T12:15:36;2.43;;;2.20;;
14797;SDS011;7490;63.708;20.368;2023-09-12T12:18:02;2.90;;;2.00;;
14797;SDS011;7490;63.708;20.368;2023-09-12T12:20:28;1.50;;;1.30;;
14797;SDS011;7490;63.708;20.368;2023-09-12T12:22:55;2.30;;;1.40;;
14797;SDS011;7490;63.708;20.368;2023-09-12T12:25:21;2.07;;;0.97;;
14797;SDS011;7490;63.708;20.368;2023-09-12T12:27:47;1.10;;;1.00;;
14797;SDS011;7490;63.708;20.368;2023-09-12T12:30:13;1.43;;;1.00;;
14797;SDS011;7490;63.708;20.368;2023-09-12T12:32:39;2.43;;;1.30;;
14797;SDS011;7490;63.708;20.368;2023-09-12T12:35:16;1.50;;;1.40;;
14797;SDS011;7490;63.708;20.368;2023-09-12T12:37:50;1.30;;;1.20;;
14797;SDS011;7490;63.708;20.368;2023-09-12T12:40:16;3.60;;;1.57;;
14797;SDS011;7490;63.708;20.368;2023-09-12T12:42:42;5.90;;;1.50;;
14797;SDS011;7490;63.708;20.368;2023-09-12T12:45:12;2.70;;;1.57;;
14797;SDS011;7490;63.708;20.368;2023-09-12T12:47:41;1.83;;;1.37;;
14797;SDS011;7490;63.708;20.368;2023-09-12T12:50:08;2.00;;;1.40;;
14797;SDS011;7490;63.708;20.368;2023-09-12T12:52:40;1.77;;;1.20;;
14797;SDS011;7490;63.708;20.368;2023-09-12T12:55:06;2.50;;;1.00;;
14797;SDS011;7490;63.708;20.368;2023-09-12T12:57:39;1.43;;;1.13;;
14797;SDS011;7490;63.708;20.368;2023-09-12T13:00:12;3.00;;;1.13;;
14797;SDS011;7490;63.708;20.368;2023-09-12T13:02:43;2.47;;;0.90;;
14797;SDS011;7490;63.708;20.368;2023-09-12T13:07:54;1.10;;;0.80;;
14797;SDS011;7490;63.708;20.368;2023-09-12T13:10:20;1.40;;;0.80;;
14797;SDS011;7490;63.708;20.368;2023-09-12T13:12:47;0.80;;;0.80;;
14797;SDS011;7490;63.708;20.368;2023-09-12T13:15:14;0.73;;;0.70;;
14797;SDS011;7490;63.708;20.368;2023-09-12T13:17:41;1.13;;;0.80;;
14797;SDS011;7490;63.708;20.368;2023-09-12T13:20:07;0.80;;;0.80;;
14797;SDS011;7490;63.708;20.368;2023-09-12T13:22:36;0.70;;;0.70;;
14797;SDS011;7490;63.708;20.368;2023-09-12T13:25:02;2.60;;;0.97;;
14797;SDS011;7490;63.708;20.368;2023-09-12T13:27:29;2.20;;;1.20;;
14797;SDS011;7490;63.708;20.368;2023-09-12T13:29:54;2.43;;;1.20;;
14797;SDS011;7490;63.708;20.368;2023-09-12T13:32:20;1.63;;;1.27;;
14797;SDS011;7490;63.708;20.368;2023-09-12T13:34:46;2.40;;;1.13;;
14797;SDS011;7490;63.708;20.368;2023-09-12T13:37:11;0.87;;;0.80;;
14797;SDS011;7490;63.708;20.368;2023-09-12T13:39:37;1.80;;;0.90;;
14797;SDS011;7490;63.708;20.368;2023-09-12T13:42:03;1.23;;;1.00;;
14797;SDS011;7490;63.708;20.368;2023-09-12T13:44:33;1.50;;;0.80;;
14797;SDS011;7490;63.708;20.368;2023-09-12T13:46:58;2.10;;;0.90;;
14797;SDS011;7490;63.708;20.368;2023-09-12T13:49:24;1.57;;;0.80;;
14797;SDS011;7490;63.708;20.368;2023-09-12T13:51:50;1.57;;;0.90;;
14797;SDS011;7490;63.708;20.368;2023-09-12T13:54:15;1.00;;;0.80;;
14797;SDS011;7490;63.708;20.368;2023-09-12T13:56:41;2.13;;;1.03;;
14797;SDS011;7490;63.708;20.368;2023-09-12T13:59:07;1.57;;;1.00;;
14797;SDS011;7490;63.708;20.368;2023-09-12T14:01:33;1.13;;;0.73;;
14797;SDS011;7490;63.708;20.368;2023-09-12T14:03:59;2.33;;;0.80;;
14797;SDS011;7490;63.708;20.368;2023-09-12T14:06:24;0.80;;;0.80;;
14797;SDS011;7490;63.708;20.368;2023-09-12T14:08:51;2.40;;;0.90;;
14797;SDS011;7490;63.708;20.368;2023-09-12T14:11:17;3.07;;;1.20;;
14797;SDS011;7490;63.708;20.368;2023-09-12T14:13:43;1.13;;;0.93;;
14797;SDS011;7490;63.708;20.368;2023-09-12T14:16:08;1.03;;;0.93;;
14797;SDS011;7490;63.708;20.368;2023-09-12T14:18:34;1.10;;;0.80;;
14797;SDS011;7490;63.708;20.368;2023-09-12T14:20:59;4.37;;;1.10;;
14797;SDS011;7490;63.708;20.368;2023-09-12T14:23:25;1.83;;;0.90;;
14797;SDS011;7490;63.708;20.368;2023-09-12T14:25:51;2.60;;;0.97;;
14797;SDS011;7490;63.708;20.368;2023-09-12T14:28:16;2.63;;;0.90;;
14797;SDS011;7490;63.708;20.368;2023-09-12T14:30:42;1.37;;;1.03;;
14797;SDS011;7490;63.708;20.368;2023-09-12T14:33:10;3.93;;;1.20;;
14797;SDS011;7490;63.708;20.368;2023-09-12T14:35:36;3.47;;;1.00;;
14797;SDS011;7490;63.708;20.368;2023-09-12T14:38:02;1.73;;;1.17;;
14797;SDS011;7490;63.708;20.368;2023-09-12T14:40:29;2.33;;;1.23;;
14797;SDS011;7490;63.708;20.368;2023-09-12T14:42:55;2.07;;;1.20;;
14797;SDS011;7490;63.708;20.368;2023-09-12T14:45:20;1.17;;;0.90;;
14797;SDS011;7490;63.708;20.368;2023-09-12T14:47:46;0.77;;;0.77;;
14797;SDS011;7490;63.708;20.368;2023-09-12T14:50:12;3.23;;;1.00;;